createdAt,value
2017-01-05T00:01:50.320Z,91.202
2017-01-05T00:04:43.052Z,91.191
2017-01-05T00:07:35.653Z,90.988
2017-01-05T00:10:27.117Z,90.622
2017-01-05T00:13:19.755Z,90.827
2017-01-05T00:19:04.912Z,90.712
2017-01-05T00:21:58.161Z,90.293
2017-01-05T00:24:52.537Z,90.637
2017-01-05T00:27:43.527Z,90.178
2017-01-05T00:30:37.854Z,90.761
2017-01-05T00:33:28.715Z,90.549
2017-01-05T00:36:21.150Z,90.420
2017-01-05T00:39:13.830Z,90.004
2017-01-05T00:42:08.237Z,90.215
2017-01-05T00:44:59.150Z,90.643
2017-01-05T00:47:53.279Z,89.552
2017-01-05T00:50:44.180Z,89.850
2017-01-05T00:53:36.791Z,89.526
2017-01-05T00:59:22.057Z,90.196
2017-01-05T01:02:16.338Z,89.567
2017-01-05T01:05:08.954Z,89.801
2017-01-05T01:07:59.926Z,89.880
2017-01-05T01:10:52.502Z,89.875
2017-01-05T01:13:46.867Z,90.571
2017-01-05T01:16:37.835Z,90.170
2017-01-05T01:19:30.506Z,89.959
2017-01-05T01:22:24.823Z,89.327
2017-01-05T01:28:10.118Z,90.125
2017-01-05T01:31:02.716Z,91.200
2017-01-05T01:33:55.422Z,91.845
2017-01-05T01:36:46.420Z,92.135
2017-01-05T01:39:40.838Z,92.175
2017-01-05T01:42:31.761Z,92.413
2017-01-05T01:48:18.653Z,92.837
2017-01-05T01:51:11.276Z,92.614
2017-01-05T01:54:02.242Z,92.476
2017-01-05T01:56:56.528Z,92.606
2017-01-05T01:59:49.219Z,92.554
2017-01-05T02:02:41.781Z,92.715
2017-01-05T02:05:34.433Z,92.444
2017-01-05T02:08:27.058Z,92.349
2017-01-05T02:11:18.062Z,92.452
2017-01-05T02:14:12.249Z,92.368
2017-01-05T02:17:05.723Z,91.963
2017-01-05T02:19:56.610Z,92.001
2017-01-05T02:22:48.410Z,92.508
2017-01-05T02:25:40.936Z,92.359
2017-01-05T02:28:36.235Z,92.073
2017-01-05T02:31:27.848Z,92.213
2017-01-05T02:34:20.265Z,91.913
2017-01-05T02:37:11.161Z,91.926
2017-01-05T02:40:05.403Z,91.789
2017-01-05T02:42:56.185Z,92.043
2017-01-05T02:45:50.384Z,92.053
2017-01-05T02:48:41.268Z,92.553
2017-01-05T02:51:33.904Z,92.530
2017-01-05T02:54:26.676Z,92.054
2017-01-05T02:57:19.433Z,92.456
2017-01-05T03:00:13.730Z,91.986
2017-01-05T03:03:05.520Z,92.295
2017-01-05T03:05:59.686Z,92.150
2017-01-05T03:08:50.467Z,92.395
2017-01-05T03:14:35.557Z,92.773
2017-01-05T03:17:27.200Z,92.516
2017-01-05T03:20:19.602Z,92.893
2017-01-05T03:23:12.673Z,92.817
2017-01-05T03:26:07.037Z,93.250
2017-01-05T03:28:58.416Z,93.222
2017-01-05T03:31:50.975Z,92.960
2017-01-05T03:34:42.343Z,93.171
2017-01-05T03:37:35.856Z,93.301
2017-01-05T03:40:28.461Z,93.197
2017-01-05T03:43:20.060Z,93.594
2017-01-05T03:46:11.600Z,93.432
2017-01-05T03:49:04.032Z,93.514
2017-01-05T03:51:56.536Z,93.350
2017-01-05T03:54:50.659Z,92.909
2017-01-05T03:57:42.166Z,93.375
2017-01-05T04:00:34.934Z,93.062
2017-01-05T04:03:28.180Z,92.847
2017-01-05T04:06:18.822Z,93.117
2017-01-05T04:09:13.155Z,92.864
2017-01-05T04:12:03.883Z,92.503
2017-01-05T04:14:58.132Z,92.844
2017-01-05T04:23:34.460Z,92.258
2017-01-05T04:26:26.405Z,91.859
2017-01-05T04:29:20.510Z,92.317
2017-01-05T04:32:13.888Z,92.157
2017-01-05T04:35:03.708Z,91.948
2017-01-05T04:37:57.199Z,91.612
2017-01-05T04:40:48.735Z,91.873
2017-01-05T04:43:41.994Z,91.800
2017-01-05T04:46:35.517Z,91.765
2017-01-05T04:49:27.071Z,91.613
2017-01-05T04:52:19.002Z,91.724
2017-01-05T04:55:11.609Z,91.997
2017-01-05T04:58:05.772Z,92.468
2017-01-05T05:00:58.521Z,92.206
2017-01-05T05:03:49.480Z,91.904
2017-01-05T05:06:42.003Z,91.572
2017-01-05T05:09:36.386Z,91.084
2017-01-05T05:12:28.953Z,91.165
2017-01-05T05:15:19.902Z,90.465
2017-01-05T05:18:12.619Z,91.077
2017-01-05T05:21:06.832Z,90.747
2017-01-05T05:23:57.638Z,90.766
2017-01-05T05:26:50.265Z,91.052
2017-01-05T05:29:42.878Z,91.028
2017-01-05T05:32:37.405Z,91.348
2017-01-05T05:35:29.141Z,91.127
2017-01-05T05:38:21.252Z,91.180
2017-01-05T05:41:13.907Z,91.332
2017-01-05T05:44:08.282Z,91.249
2017-01-05T05:47:00.783Z,90.739
2017-01-05T05:49:52.698Z,91.129
2017-01-05T05:52:45.987Z,91.311
2017-01-05T05:55:36.841Z,91.490
2017-01-05T05:58:31.043Z,91.236
2017-01-05T06:01:22.863Z,91.398
2017-01-05T06:04:15.025Z,91.287
2017-01-05T06:07:07.525Z,91.738
2017-01-05T06:10:00.028Z,91.990
2017-01-05T06:12:54.719Z,92.287
2017-01-05T06:15:47.303Z,91.874
2017-01-05T06:18:39.913Z,92.026
2017-01-05T06:21:30.685Z,92.418
2017-01-05T06:24:23.197Z,91.560
2017-01-05T06:27:15.741Z,92.472
2017-01-05T06:33:00.719Z,92.241
2017-01-05T06:35:55.804Z,92.506
2017-01-05T06:38:45.688Z,92.152
2017-01-05T06:41:38.179Z,92.362
2017-01-05T06:44:30.682Z,91.909
2017-01-05T06:47:23.322Z,92.505
2017-01-05T06:50:17.454Z,92.176
2017-01-05T06:53:09.926Z,92.013
2017-01-05T06:56:02.500Z,92.168
2017-01-05T06:58:53.271Z,91.490
2017-01-05T07:01:45.739Z,91.683
2017-01-05T07:04:40.106Z,91.467
2017-01-05T07:07:32.702Z,91.891
2017-01-05T07:10:24.583Z,91.415
2017-01-05T07:13:17.670Z,91.518
2017-01-05T07:16:10.060Z,91.279
2017-01-05T07:21:53.284Z,92.105
2017-01-05T07:24:46.749Z,91.845
2017-01-05T07:27:40.097Z,91.729
2017-01-05T07:30:30.896Z,91.549
2017-01-05T07:33:25.084Z,91.392
2017-01-05T07:36:17.870Z,91.533
2017-01-05T07:39:10.519Z,91.643
2017-01-05T07:42:01.802Z,91.619
2017-01-05T07:44:53.703Z,91.846
2017-01-05T07:47:47.785Z,91.821
2017-01-05T07:50:41.343Z,91.955
2017-01-05T07:53:31.093Z,91.864
2017-01-05T07:56:25.155Z,92.303
2017-01-05T07:59:17.618Z,92.017
2017-01-05T08:05:01.161Z,91.664
2017-01-05T08:07:54.648Z,91.658
2017-01-05T08:10:46.326Z,91.655
2017-01-05T08:13:39.459Z,91.376
2017-01-05T08:16:31.941Z,91.337
2017-01-05T08:19:27.248Z,91.136
2017-01-05T08:22:18.735Z,90.779
2017-01-05T08:25:11.755Z,90.112
2017-01-05T08:28:04.419Z,89.930
2017-01-05T08:30:56.775Z,90.261
2017-01-05T08:33:49.338Z,90.410
2017-01-05T08:36:40.036Z,89.958
2017-01-05T08:39:33.433Z,89.595
2017-01-05T08:42:25.191Z,89.550
2017-01-05T08:45:20.423Z,88.303
2017-01-05T08:48:12.241Z,88.405
2017-01-05T08:53:56.215Z,88.948
2017-01-05T08:56:48.102Z,89.619
2017-01-05T08:59:42.384Z,89.045
2017-01-05T09:02:35.368Z,88.170
2017-01-05T09:05:27.976Z,88.694
2017-01-05T09:08:18.991Z,88.228
2017-01-05T09:11:13.144Z,87.634
2017-01-05T09:14:04.491Z,87.174
2017-01-05T09:16:58.869Z,85.815
2017-01-05T09:19:50.377Z,86.004
2017-01-05T09:25:34.575Z,86.404
2017-01-05T09:28:29.777Z,85.812
2017-01-05T09:31:19.737Z,86.766
2017-01-05T09:34:14.016Z,86.291
2017-01-05T09:37:06.476Z,85.773
2017-01-05T09:39:58.015Z,85.874
2017-01-05T09:42:50.610Z,85.110
2017-01-05T09:45:44.941Z,84.635
2017-01-05T09:48:36.806Z,83.616
2017-01-05T09:51:28.355Z,82.636
2017-01-05T09:54:22.834Z,82.173
2017-01-05T09:57:13.777Z,81.158
2017-01-05T10:00:08.339Z,78.743
2017-01-05T10:05:54.238Z,75.902
2017-01-05T10:08:47.606Z,75.565
2017-01-05T10:11:38.805Z,75.082
2017-01-05T10:14:33.426Z,73.800
2017-01-05T10:17:26.082Z,72.229
2017-01-05T10:20:17.838Z,72.153
2017-01-05T10:23:10.688Z,70.652
2017-01-05T10:26:05.188Z,71.841
2017-01-05T10:28:58.036Z,70.751
2017-01-05T10:31:50.763Z,70.167
2017-01-05T10:34:41.723Z,73.378
2017-01-05T10:37:36.156Z,72.674
2017-01-05T10:40:26.966Z,72.638
2017-01-05T10:43:20.011Z,71.691
2017-01-05T10:46:13.569Z,71.643
2017-01-05T10:49:06.736Z,70.820
2017-01-05T10:52:00.191Z,69.237
2017-01-05T10:54:53.015Z,68.952
2017-01-05T10:57:44.718Z,67.902
2017-01-05T11:00:36.629Z,68.074
2017-01-05T11:03:29.178Z,68.993
2017-01-05T11:06:21.730Z,70.075
2017-01-05T11:09:14.199Z,70.984
2017-01-05T11:12:06.904Z,68.998
2017-01-05T11:14:59.441Z,70.751
2017-01-05T11:17:52.085Z,69.653
2017-01-05T11:20:46.443Z,71.600
2017-01-05T11:23:39.053Z,72.471
2017-01-05T11:26:31.739Z,71.719
2017-01-05T11:29:23.278Z,73.860
2017-01-05T11:32:15.867Z,71.148
2017-01-05T11:35:09.583Z,71.169
2017-01-05T11:38:02.152Z,70.523
2017-01-05T11:40:54.039Z,71.011
2017-01-05T11:43:46.509Z,69.504
2017-01-05T11:46:39.770Z,71.139
2017-01-05T11:49:31.344Z,71.870
2017-01-05T11:52:24.891Z,70.830
2017-01-05T11:55:18.526Z,71.878
2017-01-05T11:58:08.229Z,71.686
2017-01-05T12:01:02.413Z,72.867
2017-01-05T12:03:55.413Z,71.623
2017-01-05T12:06:46.117Z,72.418
2017-01-05T12:09:38.599Z,69.692
2017-01-05T12:12:31.132Z,71.234
2017-01-05T12:15:25.374Z,70.675
2017-01-05T12:18:18.223Z,68.592
2017-01-05T12:21:10.685Z,69.590
2017-01-05T12:24:01.428Z,67.369
2017-01-05T12:26:56.200Z,68.008
2017-01-05T12:29:48.908Z,66.091
2017-01-05T12:32:39.732Z,67.415
2017-01-05T12:38:26.556Z,67.639
2017-01-05T12:41:17.488Z,65.421
2017-01-05T12:44:10.128Z,66.239
2017-01-05T12:47:04.492Z,65.024
2017-01-05T12:49:55.396Z,65.821
2017-01-05T12:52:50.765Z,65.918
2017-01-05T12:55:42.332Z,65.598
2017-01-05T12:58:34.842Z,66.700
2017-01-05T13:01:27.532Z,69.070
2017-01-05T13:04:20.028Z,67.038
2017-01-05T13:07:10.858Z,68.730
2017-01-05T13:10:05.257Z,67.880
2017-01-05T13:12:57.917Z,69.058
2017-01-05T13:15:50.537Z,68.370
2017-01-05T13:18:42.170Z,68.443
2017-01-05T13:21:34.069Z,68.288
2017-01-05T13:24:26.684Z,70.211
2017-01-05T13:27:19.268Z,70.024
2017-01-05T13:30:12.570Z,70.905
2017-01-05T13:33:04.484Z,70.124
2017-01-05T13:35:57.183Z,70.411
2017-01-05T13:38:49.878Z,69.912
2017-01-05T13:41:42.505Z,69.844
2017-01-05T13:44:36.770Z,70.304
2017-01-05T13:47:27.794Z,71.423
2017-01-05T13:53:14.733Z,75.913
2017-01-05T13:56:07.224Z,76.989
2017-01-05T13:58:58.040Z,78.157
2017-01-05T14:01:53.321Z,78.827
2017-01-05T14:04:43.070Z,78.994
2017-01-05T14:07:36.355Z,79.981
2017-01-05T14:10:30.455Z,79.875
2017-01-05T14:16:14.773Z,80.024
2017-01-05T14:19:08.035Z,79.404
2017-01-05T14:21:59.839Z,80.299
2017-01-05T14:24:51.454Z,80.127
2017-01-05T14:30:36.560Z,79.342
2017-01-05T14:33:29.782Z,79.189
2017-01-05T14:36:21.724Z,79.683
2017-01-05T14:39:15.758Z,79.550
2017-01-05T14:42:08.427Z,79.306
2017-01-05T14:44:58.893Z,79.282
2017-01-05T14:47:51.453Z,77.819
2017-01-05T14:50:43.965Z,77.929
2017-01-05T14:53:38.270Z,78.061
2017-01-05T14:59:21.386Z,76.882
2017-01-05T15:02:15.537Z,77.631
2017-01-05T15:07:58.753Z,76.813
2017-01-05T15:10:51.100Z,77.829
2017-01-05T15:13:45.967Z,77.648
2017-01-05T15:16:35.735Z,78.017
2017-01-05T15:19:28.211Z,77.082
2017-01-05T15:22:21.512Z,77.166
2017-01-05T15:25:13.949Z,77.523
2017-01-05T15:28:07.006Z,77.437
2017-01-05T15:30:58.527Z,78.983
2017-01-05T15:33:51.746Z,77.364
2017-01-05T15:36:42.500Z,77.987
2017-01-05T15:39:36.474Z,78.055
2017-01-05T15:42:28.839Z,78.545
2017-01-05T15:45:22.223Z,78.027
2017-01-05T15:48:12.119Z,78.164
2017-01-05T15:51:04.436Z,78.702
2017-01-05T15:53:56.776Z,78.011
2017-01-05T15:56:49.200Z,78.293
2017-01-05T15:59:43.185Z,78.942
2017-01-05T16:02:35.673Z,78.275
2017-01-05T16:05:28.045Z,78.811
2017-01-05T16:08:20.438Z,79.266
2017-01-05T16:11:13.817Z,78.698
2017-01-05T16:14:03.492Z,78.931
2017-01-05T16:16:57.610Z,78.814
2017-01-05T16:19:49.895Z,79.169
2017-01-05T16:22:43.141Z,78.871
2017-01-05T16:25:32.671Z,78.519
2017-01-05T16:28:24.996Z,78.531
2017-01-05T16:34:09.710Z,79.059
2017-01-05T16:39:54.311Z,79.588
2017-01-05T16:42:47.278Z,79.479
2017-01-05T16:48:31.852Z,78.840
2017-01-05T16:51:23.746Z,79.564
2017-01-05T16:54:17.888Z,79.250
2017-01-05T16:57:10.463Z,78.855
2017-01-05T17:00:02.933Z,79.848
2017-01-05T17:02:53.878Z,78.653
2017-01-05T17:05:47.978Z,79.594
2017-01-05T17:08:38.935Z,78.850
2017-01-05T17:11:33.450Z,80.367
2017-01-05T17:14:25.944Z,79.658
2017-01-05T17:17:17.081Z,79.747
2017-01-05T17:20:12.092Z,79.584
2017-01-05T17:23:04.631Z,80.394
2017-01-05T17:25:55.136Z,80.483
2017-01-05T17:28:49.819Z,79.922
2017-01-05T17:31:40.332Z,80.142
2017-01-05T17:37:27.559Z,80.414
2017-01-05T17:40:18.579Z,80.541
2017-01-05T17:43:10.070Z,81.141
2017-01-05T17:46:03.510Z,80.152
2017-01-05T17:48:56.861Z,80.442
2017-01-05T17:51:50.335Z,80.958
2017-01-05T17:54:42.896Z,81.492
2017-01-05T17:57:34.491Z,80.675
2017-01-05T18:00:27.047Z,80.948
2017-01-05T18:03:18.645Z,80.958
2017-01-05T18:09:03.091Z,80.948
2017-01-05T18:11:55.736Z,81.049
2017-01-05T18:14:50.736Z,81.297
2017-01-05T18:17:43.281Z,81.322
2017-01-05T18:20:33.392Z,81.468
2017-01-05T18:29:11.649Z,81.145
2017-01-05T18:32:03.479Z,81.107
2017-01-05T18:34:55.765Z,81.389
2017-01-05T18:37:49.930Z,82.188
2017-01-05T18:40:42.617Z,82.424
2017-01-05T18:43:34.010Z,81.512
2017-01-05T18:46:25.786Z,81.625
2017-01-05T18:49:18.150Z,82.913
2017-01-05T18:52:10.785Z,81.970
2017-01-05T18:55:03.211Z,81.849
2017-01-05T18:57:55.789Z,81.414
2017-01-05T19:00:48.305Z,81.822
2017-01-05T19:03:40.903Z,82.411
2017-01-05T19:06:33.317Z,81.676
2017-01-05T19:09:27.496Z,82.150
2017-01-05T19:12:20.072Z,81.977
2017-01-05T19:15:12.662Z,81.931
2017-01-05T19:18:03.610Z,81.756
2017-01-05T19:20:56.190Z,82.843
2017-01-05T19:26:43.001Z,82.911
2017-01-05T19:29:34.793Z,82.285
2017-01-05T19:35:20.886Z,81.316
2017-01-05T19:38:11.701Z,81.410
2017-01-05T19:41:04.325Z,81.999
2017-01-05T19:49:43.252Z,84.813
2017-01-05T19:52:36.510Z,82.030
2017-01-05T19:55:29.050Z,82.062
2017-01-05T19:58:22.346Z,81.909
2017-01-05T20:01:12.417Z,82.512
2017-01-05T20:04:07.509Z,81.948
2017-01-05T20:12:42.228Z,82.258
2017-01-05T20:15:37.379Z,82.002
2017-01-05T20:18:27.154Z,83.447
2017-01-05T20:21:19.620Z,82.410
2017-01-05T20:27:04.648Z,81.441
2017-01-05T20:29:57.082Z,81.928
2017-01-05T20:32:49.298Z,82.317
2017-01-05T20:35:41.829Z,82.811
2017-01-05T20:38:36.743Z,83.162
2017-01-05T20:41:28.361Z,83.105
2017-01-05T20:44:19.033Z,82.701
2017-01-05T20:47:13.127Z,82.749
2017-01-05T20:50:03.956Z,83.384
2017-01-05T20:52:57.184Z,82.386
2017-01-05T21:01:36.854Z,82.272
2017-01-05T21:04:28.405Z,82.783
2017-01-05T21:07:20.781Z,82.926
2017-01-05T21:10:13.346Z,83.194
2017-01-05T21:13:05.737Z,82.655
2017-01-05T21:18:49.314Z,83.305
2017-01-05T21:21:43.385Z,83.307
2017-01-05T21:24:36.294Z,83.175
2017-01-05T21:27:27.733Z,83.502
2017-01-05T21:30:22.528Z,83.976
2017-01-05T21:33:14.020Z,83.595
2017-01-05T21:36:04.716Z,83.357
2017-01-05T21:38:57.195Z,83.676
2017-01-05T21:41:49.594Z,83.893
2017-01-05T21:47:36.076Z,83.816
2017-01-05T21:56:11.880Z,83.779
2017-01-05T21:59:04.397Z,84.509
2017-01-05T22:01:57.686Z,83.645
2017-01-05T22:04:49.164Z,84.064
2017-01-05T22:07:41.547Z,84.425
2017-01-05T22:10:35.969Z,83.750
2017-01-05T22:13:26.886Z,84.463
2017-01-05T22:16:20.896Z,84.549
2017-01-05T22:19:11.988Z,84.491
2017-01-05T22:22:05.958Z,84.381
2017-01-05T22:27:51.077Z,84.272
2017-01-05T22:33:35.384Z,84.527
2017-01-05T22:36:30.130Z,84.527
2017-01-05T22:39:22.906Z,84.708
2017-01-05T22:42:13.093Z,84.465
2017-01-05T22:47:59.585Z,84.713
2017-01-05T22:50:52.076Z,84.582
2017-01-05T22:53:42.421Z,84.155
2017-01-05T22:56:36.577Z,84.767
2017-01-05T23:02:21.201Z,84.763
2017-01-05T23:05:13.720Z,84.833
2017-01-05T23:10:57.738Z,84.784
2017-01-05T23:13:51.881Z,84.622
2017-01-05T23:16:44.132Z,84.321
2017-01-05T23:19:36.537Z,84.139
2017-01-05T23:22:29.179Z,84.529
2017-01-05T23:25:20.598Z,84.598
2017-01-05T23:28:13.813Z,84.279
2017-01-05T23:31:06.390Z,84.301
2017-01-05T23:33:58.784Z,84.529
2017-01-05T23:42:35.231Z,84.251
2017-01-05T23:45:26.993Z,84.498
2017-01-05T23:48:19.567Z,84.541
2017-01-05T23:51:13.612Z,84.318
2017-01-05T23:54:04.255Z,84.610
2017-01-05T23:56:58.455Z,84.552
2017-01-05T23:59:49.270Z,85.398
